Latest Weather Observations for Dennes Point

IDT60801

Issued at 8:01 am EST Monday 27 April 2015 (issued every 30 minutes, with the page automatically refreshed every 10 minutes)

About weather observations | Map of weather stations | Latest weather observations for TAS | Other Formats
Station Details ID: 094255 Name: DENNES POINT Lat: -43.06 Lon: 147.36 Height: 5.67 m
Data from the previous 72 hours. | See also: Recent months at Dennes Point
Date/Time
EST
Temp
°C
App
Temp
°C
Dew
Point
Rel
Hum
%
Delta-T
°C
Wind Press
QNH
hPa
Press
MSL
hPa
Rain
since 9 am
mm
Dir
 
Spd
km/h
Gust
km/h
Spd
kts
Gust
kts
27/08:00am 10.3 6.3 5.1 70 2.4 WSW 15 20 8 11 1017.5 1017.5 0.0
27/07:30am 9.7 6.0 4.5 70 2.3 SW 13 20 7 11 1017.2 1017.2 0.0
27/07:00am 9.6 5.6 4.8 72 2.1 WSW 15 20 8 11 1016.8 1016.8 0.0
27/06:30am 9.7 4.8 5.1 73 2.1 W 20 24 11 13 1016.4 1016.4 0.0
27/06:00am 9.8 5.9 5.2 73 2.1 WSW 15 20 8 11 1016.1 1016.1 0.0
27/05:30am 9.9 6.0 5.5 74 2.0 WSW 15 19 8 10 1016.0 1016.0 0.0
27/05:00am 9.4 5.1 5.2 75 1.9 W 17 20 9 11 1015.7 1015.7 0.0
27/04:30am 9.8 6.2 5.2 73 2.1 W 13 17 7 9 1015.5 1015.5 0.0
27/04:00am 9.5 5.9 4.9 73 2.1 W 13 17 7 9 1015.2 1015.2 0.0
27/03:30am 9.6 5.6 4.8 72 2.1 W 15 20 8 11 1015.0 1015.0 0.0
27/03:00am 9.7 5.3 4.9 72 2.2 WSW 17 22 9 12 1015.1 1015.1 0.0
27/02:30am 9.8 5.0 5.4 74 2.0 WSW 20 26 11 14 1015.1 1015.1 0.0
27/02:00am 9.4 5.2 5.6 77 1.7 WSW 17 20 9 11 1015.0 1015.0 0.0
27/01:30am 9.6 4.5 6.0 78 1.7 WSW 22 30 12 16 1015.0 1015.0 0.0
27/01:00am 10.0 4.4 5.6 74 2.0 WSW 24 37 13 20 1015.1 1015.1 0.0
27/12:30am 9.8 5.9 5.2 73 2.1 SW 15 19 8 10 1015.1 1015.1 0.0
27/12:00am 10.0 5.3 5.2 72 2.2 WSW 19 26 10 14 1014.9 1014.9 0.0
 
Date/Time
EST
Temp
°C
App
Temp
°C
Dew
Point
Rel
Hum
%
Delta-T
°C
Wind Press
QNH
hPa
Press
MSL
hPa
Rain
since 9 am
mm
Dir
 
Spd
km/h
Gust
km/h
Spd
kts
Gust
kts
26/11:30pm 10.0 5.3 5.2 72 2.2 WSW 19 28 10 15 1014.8 1014.8 0.0
26/11:00pm 9.9 5.6 5.3 73 2.1 WSW 17 20 9 11 1014.9 1014.9 0.0
26/10:30pm 10.0 5.3 5.2 72 2.2 WSW 19 26 10 14 1014.9 1014.9 0.0
26/10:00pm 10.0 5.7 5.2 72 2.2 WSW 17 22 9 12 1014.9 1014.9 0.0
26/09:30pm 9.8 5.4 5.0 72 2.2 WSW 17 22 9 12 1014.8 1014.8 0.0
26/09:00pm 10.1 4.9 5.3 72 2.2 WSW 22 26 12 14 1014.6 1014.6 0.0
26/08:30pm 10.1 4.9 5.3 72 2.2 WSW 22 32 12 17 1014.3 1014.3 0.0
26/08:00pm 10.5 5.3 5.3 70 2.4 WSW 22 28 12 15 1014.2 1014.2 0.0
26/07:30pm 10.7 6.4 5.3 69 2.5 WSW 17 22 9 12 1014.1 1014.1 0.0
26/07:00pm 10.6 6.8 5.8 72 2.2 SW 15 22 8 12 1013.7 1013.7 0.0
26/06:30pm 10.3 7.9 6.8 79 1.6 SSW 9 15 5 8 1013.4 1013.4 0.0
26/06:00pm 10.6 8.6 7.3 80 1.6 S 7 13 4 7 1013.0 1013.0 0.0
26/05:30pm 11.3 8.1 7.0 75 2.0 SW 13 17 7 9 1012.6 1012.6 0.0
26/05:00pm 11.7 7.4 7.2 74 2.2 SW 19 24 10 13 1012.2 1012.2 0.0
26/04:30pm 12.2 8.0 7.3 72 2.4 WSW 19 22 10 12 1012.0 1012.0 0.0
26/04:00pm 12.8 6.4 6.8 67 2.9 WSW 30 41 16 22 1011.5 1011.5 0.0
26/03:30pm 14.3 9.3 6.6 60 3.7 WSW 22 32 12 17 1011.2 1011.2 0.0
26/03:00pm 13.4 8.8 6.3 62 3.4 WSW 20 30 11 16 1011.0 1011.0 0.0
26/02:30pm 13.3 8.2 6.2 62 3.4 WSW 22 32 12 17 1011.0 1011.0 0.0
26/02:00pm 12.8 6.9 5.9 63 3.3 W 26 35 14 19 1011.1 1011.1 0.0
26/01:30pm 13.4 8.3 6.0 61 3.5 W 22 30 12 16 1011.0 1011.0 0.0
26/01:00pm 13.4 7.1 5.8 60 3.6 W 28 35 15 19 1011.2 1011.2 0.0
26/12:30pm 13.2 7.2 5.4 59 3.6 W 26 37 14 20 1011.2 1011.2 0.0
26/12:00pm 13.0 8.4 5.7 61 3.4 W 19 22 10 12 1011.6 1011.6 0.0
26/11:30am 13.9 8.7 5.5 57 4.0 W 22 28 12 15 1012.0 1012.0 0.0
26/11:00am 12.9 7.2 4.8 58 3.7 W 24 32 13 17 1012.3 1012.3 0.0
26/10:30am 11.7 7.7 4.7 62 3.2 W 15 20 8 11 1012.6 1012.6 0.0
26/10:00am 11.8 8.5 4.3 60 3.4 W 11 15 6 8 1013.0 1013.0 0.0
26/09:30am 11.6 8.3 4.6 62 3.2 W 11 15 6 8 1013.2 1013.2 0.0
26/09:00am 10.4 5.4 4.5 67 2.6 W 20 30 11 16 1013.3 1013.3 0.2
26/08:30am 9.9 5.5 4.9 71 2.2 WSW 17 22 9 12 1013.6 1013.6 0.2
26/08:00am 9.7 6.2 5.5 75 1.9 WSW 13 17 7 9 1013.5 1013.5 0.2
26/07:30am 9.4 4.4 4.4 71 2.2 W 20 24 11 13 1013.3 1013.3 0.2
26/07:00am 9.3 6.4 4.5 72 2.1 W 9 15 5 8 1013.0 1013.0 0.2
26/06:30am 8.5 6.0 4.5 76 1.8 SW 7 11 4 6 1012.9 1012.9 0.2
26/06:00am 8.3 6.0 4.7 78 1.6 S 6 9 3 5 1012.9 1012.9 0.2
26/05:30am 8.8 6.6 5.4 79 1.5 W 6 7 3 4 1012.9 1012.9 0.2
26/05:00am 8.3 6.2 5.9 85 1.1 W 6 9 3 5 1012.9 1012.9 0.2
26/04:30am 7.4 5.0 5.2 86 1.0 W 7 9 4 5 1012.9 1012.9 0.2
26/04:00am 8.0 5.8 5.3 83 1.2 W 6 7 3 4 1012.8 1012.8 0.2
26/03:30am 8.0 5.8 5.1 82 1.3 W 6 9 3 5 1012.9 1012.9 0.2
26/03:00am 8.4 6.2 6.0 85 1.1 W 7 13 4 7 1013.2 1013.2 0.2
26/02:30am 8.3 5.9 5.2 81 1.4 SSW 7 11 4 6 1013.2 1013.2 0.2
26/02:00am 9.4 7.3 5.9 79 1.6 W 6 9 3 5 1013.3 1013.3 0.2
26/01:30am 9.6 7.0 6.3 80 1.5 WSW 9 17 5 9 1013.4 1013.4 0.2
26/01:00am 9.8 6.9 6.7 81 1.5 SW 11 15 6 8 1013.4 1013.4 0.2
26/12:30am 9.4 6.8 6.1 80 1.5 SW 9 13 5 7 1013.3 1013.3 0.2
26/12:00am 9.7 6.1 6.6 81 1.4 WSW 15 19 8 10 1013.3 1013.3 0.2
 
Date/Time
EST
Temp
°C
App
Temp
°C
Dew
Point
Rel
Hum
%
Delta-T
°C
Wind Press
QNH
hPa
Press
MSL
hPa
Rain
since 9 am
mm
Dir
 
Spd
km/h
Gust
km/h
Spd
kts
Gust
kts
25/11:30pm 9.7 6.1 6.6 81 1.4 WSW 15 19 8 10 1013.4 1013.4 0.2
25/11:00pm 9.3 6.8 6.4 82 1.3 SSW 9 11 5 6 1013.6 1013.6 0.2
25/10:30pm 9.6 6.0 6.9 83 1.3 SW 15 20 8 11 1013.6 1013.6 0.2
25/10:00pm 9.9 6.6 6.6 80 1.5 SW 13 17 7 9 1013.8 1013.8 0.2
25/09:30pm 9.9 6.7 6.8 81 1.5 WSW 13 19 7 10 1013.8 1013.8 0.2
25/09:00pm 9.9 6.6 6.6 80 1.5 SW 13 17 7 9 1013.8 1013.8 0.2
25/08:30pm 10.1 7.7 6.8 80 1.6 SW 9 13 5 7 1013.7 1013.7 0.2
25/08:00pm 10.0 6.8 6.9 81 1.5 SW 13 17 7 9 1013.6 1013.6 0.2
25/07:30pm 10.2 7.7 6.7 79 1.6 SW 9 15 5 8 1013.5 1013.5 0.2
25/07:00pm 10.3 8.8 6.6 78 1.7 SSW 4 6 2 3 1013.3 1013.3 0.2
25/06:30pm 10.4 8.3 6.5 77 1.8 S 7 17 4 9 1013.0 1013.0 0.2
25/06:00pm 10.5 7.9 6.1 74 2.0 SSW 9 13 5 7 1012.6 1012.6 0.2
25/05:30pm 10.6 7.6 6.2 74 2.0 SW 11 20 6 11 1012.3 1012.3 0.2
25/05:00pm 10.7 7.4 6.3 74 2.1 SSW 13 19 7 10 1012.0 1012.0 0.2
25/04:30pm 11.2 8.3 6.7 74 2.1 S 11 22 6 12 1011.8 1011.8 0.2
25/04:00pm 11.6 9.1 6.7 72 2.3 SW 9 15 5 8 1011.5 1011.5 0.2
25/03:30pm 11.6 8.3 6.3 70 2.5 SSW 13 20 7 11 1011.3 1011.3 0.2
25/03:00pm 12.0 8.3 6.3 68 2.7 SW 15 24 8 13 1011.1 1011.1 0.2
25/02:30pm 11.8 7.7 6.1 68 2.7 SSW 17 24 9 13 1010.9 1010.9 0.2
25/02:00pm 12.5 8.5 6.5 67 2.9 SSW 17 24 9 13 1010.7 1010.7 0.2
25/01:30pm 12.1 8.9 6.8 70 2.5 SSW 13 19 7 10 1010.8 1010.8 0.2
25/01:00pm 12.9 9.7 6.9 67 2.9 SW 13 19 7 10 1010.8 1010.8 0.2
25/12:30pm 13.2 9.6 6.8 65 3.1 SW 15 20 8 11 1010.7 1010.7 0.2
25/12:00pm 13.3 9.3 6.6 64 3.2 WSW 17 24 9 13 1010.8 1010.8 0.2
25/11:30am 13.1 9.9 6.7 65 3.1 SSW 13 24 7 13 1010.9 1010.9 0.2
25/11:00am 12.2 8.0 7.3 72 2.4 SW 19 28 10 15 1010.9 1010.9 0.0
25/10:30am 11.7 7.8 7.2 74 2.2 SW 17 24 9 13 1010.7 1010.7 0.0
25/10:00am 11.5 8.5 7.6 77 1.9 SSW 13 22 7 12 1010.7 1010.7 0.0
25/09:30am 11.0 8.0 7.9 81 1.5 SSW 13 24 7 13 1010.5 1010.5 0.0
25/09:00am 10.8 7.9 8.0 83 1.4 SSW 13 19 7 10 1010.2 1010.2 2.4
25/08:30am 10.7 8.3 8.6 87 1.0 SSW 11 19 6 10 1010.0 1010.0 2.4
25/08:00am 10.0 6.9 8.8 92 0.6 SSW 15 26 8 14 1009.6 1009.6 2.4
25/07:30am 10.3 6.9 9.2 93 0.5 SW 17 24 9 13 1009.1 1009.1 2.4
25/07:00am 10.4 6.7 9.3 93 0.5 SSW 19 28 10 15 1008.5 1008.4 2.4
25/06:30am 10.8 7.5 9.7 93 0.6 SW 17 30 9 16 1008.1 1008.0 2.2
25/06:00am 10.8 9.3 9.2 90 0.8 S 7 11 4 6 1007.4 1007.3 1.4
25/05:30am 11.1 9.2 9.2 88 0.9 SW 9 17 5 9 1007.1 1007.0 1.4
25/05:00am 11.1 8.5 9.5 90 0.8 WSW 13 17 7 9 1006.8 1006.7 1.4
25/04:30am 11.3 8.0 9.6 89 0.9 W 17 22 9 12 1006.5 1006.4 1.4
25/04:00am 11.1 8.6 9.7 91 0.7 WSW 13 19 7 10 1006.3 1006.2 1.4
25/03:30am 11.1 7.9 9.9 92 0.6 SW 17 22 9 12 1006.0 1005.9 1.2
25/03:00am 11.1 9.4 9.7 91 0.7 SSW 9 15 5 8 1005.9 1005.8 1.2
25/02:30am 11.4 8.4 9.3 87 1.1 SSW 15 24 8 13 1005.8 1005.7 1.0
25/02:00am 11.9 10.4 9.1 83 1.4 SSW 7 9 4 5 1005.6 1005.5 1.0
25/01:30am 12.0 10.1 9.2 83 1.4 SW 9 13 5 7 1005.3 1005.2 1.0
25/01:00am 12.3 9.0 9.5 83 1.4 SW 17 22 9 12 1005.0 1004.9 1.0
25/12:30am 12.0 8.7 9.6 85 1.2 SSW 17 24 9 13 1004.9 1004.8 1.0
25/12:00am 12.2 9.7 9.6 84 1.3 SSW 13 19 7 10 1004.9 1004.8 1.0
 
Date/Time
EST
Temp
°C
App
Temp
°C
Dew
Point
Rel
Hum
%
Delta-T
°C
Wind Press
QNH
hPa
Press
MSL
hPa
Rain
since 9 am
mm
Dir
 
Spd
km/h
Gust
km/h
Spd
kts
Gust
kts
24/11:30pm 12.4 9.5 9.6 83 1.4 SSW 15 19 8 10 1004.6 1004.5 1.0
24/11:00pm 12.3 10.6 9.9 85 1.2 SSW 9 15 5 8 1004.4 1004.3 1.0
24/10:30pm 12.2 10.5 9.9 86 1.2 S 9 17 5 9 1004.5 1004.4 1.0
24/10:00pm 12.4 10.0 10.1 86 1.2 S 13 19 7 10 1004.3 1004.2 1.0
24/09:30pm 12.5 10.1 10.0 85 1.3 S 13 17 7 9 1004.1 1004.0 1.0
24/09:00pm 12.5 11.4 10.0 85 1.3 SSW 6 11 3 6 1003.9 1003.8 1.0
24/08:30pm 12.7 10.7 10.2 85 1.3 SSW 11 17 6 9 1003.8 1003.7 1.0
24/08:00pm 12.7 10.7 10.1 84 1.3 S 11 19 6 10 1003.6 1003.5 1.0
24/07:30pm 12.9 11.3 10.3 84 1.3 SSW 9 13 5 7 1003.4 1003.3 1.0
24/07:00pm 13.1 12.2 10.6 85 1.3 S 6 13 3 7 1003.3 1003.2 1.0
24/06:30pm 13.2 12.3 10.7 85 1.3 SSW 6 11 3 6 1003.3 1003.2 1.0
24/06:00pm 13.2 12.7 10.7 85 1.3 SSE 4 6 2 3 1002.8 1002.7 1.0
24/05:30pm 13.4 13.3 10.9 85 1.3 S 2 4 1 2 1002.3 1002.2 1.0
24/05:00pm 13.2 12.6 10.4 83 1.5 SE 4 7 2 4 1001.9 1001.9 1.0
24/04:30pm 13.6 12.7 10.6 82 1.6 ESE 6 6 3 3 1001.8 1001.8 1.0
24/04:00pm 13.6 12.7 10.8 83 1.5 ESE 6 7 3 4 1001.8 1001.8 1.0
24/03:30pm 14.1 13.4 11.4 84 1.4 NE 6 6 3 3 1001.9 1001.9 1.0
24/03:00pm 14.0 13.7 11.3 84 1.4 NE 4 6 2 3 1002.2 1002.1 1.0
24/02:30pm 13.8 13.5 11.3 85 1.3 NE 4 4 2 2 1002.4 1002.3 1.0
24/02:00pm 13.9 13.6 11.6 86 1.2 NNE 4 6 2 3 1002.6 1002.5 1.0
24/01:30pm 13.5 13.1 11.2 86 1.2 NNE 4 6 2 3 1002.7 1002.6 1.0
24/01:00pm 13.7 12.9 11.2 85 1.3 NNE 6 7 3 4 1003.0 1002.9 1.0
24/12:30pm 13.8 13.1 11.5 86 1.2 N 6 7 3 4 1003.2 1003.1 1.0
24/12:00pm 13.7 13.5 11.8 88 1.0 NW 4 6 2 3 1003.7 1003.6 1.0
24/11:30am 13.4 13.6 11.8 90 0.9 WNW 2 4 1 2 1004.0 1003.9 1.0
24/11:00am 12.9 13.4 11.6 92 0.7 CALM 0 0 0 0 1004.2 1004.1 1.0
24/10:30am 12.6 13.1 11.5 93 0.6 CALM 0 0 0 0 1004.6 1004.5 1.0
24/10:00am 12.2 12.2 11.1 93 0.6 S 2 2 1 1 1005.1 1005.0 0.8
24/09:30am 12.2 11.9 11.3 94 0.5 SSW 4 6 2 3 1005.5 1005.4 0.2
24/09:00am 12.3 12.0 11.4 94 0.5 SSW 4 6 2 3 1005.8 1005.7 1.0
24/08:30am 12.0 11.6 11.1 94 0.5 SW 4 6 2 3 1006.0 1005.9 0.2

Other Formats:

Comma delimited format used in spreadsheet applications
http://www.bom.gov.au/fwo/IDT60801/IDT60801.94988.axf

JavaScript Object Notation format (JSON) in row-major order
http://www.bom.gov.au/fwo/IDT60801/IDT60801.94988.json